sensor_id;sensor_type;location;lat;lon;timestamp;temperature;humidity
44775;DHT22;31340;51.402;0.016;2023-08-24T00:00:32;22.80;83.70
44775;DHT22;31340;51.402;0.016;2023-08-24T00:03:02;22.80;84.00
44775;DHT22;31340;51.402;0.016;2023-08-24T00:05:34;22.70;84.10
44775;DHT22;31340;51.402;0.016;2023-08-24T00:08:07;22.60;84.40
44775;DHT22;31340;51.402;0.016;2023-08-24T00:10:36;22.60;84.60
44775;DHT22;31340;51.402;0.016;2023-08-24T00:13:03;22.60;84.80
44775;DHT22;31340;51.402;0.016;2023-08-24T00:15:31;22.50;85.10
44775;DHT22;31340;51.402;0.016;2023-08-24T00:17:59;22.40;85.30
44775;DHT22;31340;51.402;0.016;2023-08-24T00:20:26;22.40;85.40
44775;DHT22;31340;51.402;0.016;2023-08-24T00:22:54;22.30;85.70
44775;DHT22;31340;51.402;0.016;2023-08-24T00:25:22;22.30;85.80
44775;DHT22;31340;51.402;0.016;2023-08-24T00:27:49;22.20;86.00
44775;DHT22;31340;51.402;0.016;2023-08-24T00:55:58;21.70;87.70
44775;DHT22;31340;51.402;0.016;2023-08-24T00:58:27;21.60;87.90
44775;DHT22;31340;51.402;0.016;2023-08-24T01:00:57;21.60;88.30
44775;DHT22;31340;51.402;0.016;2023-08-24T01:03:24;21.60;88.70
44775;DHT22;31340;51.402;0.016;2023-08-24T01:05:52;21.60;88.90
44775;DHT22;31340;51.402;0.016;2023-08-24T01:08:21;21.60;89.30
44775;DHT22;31340;51.402;0.016;2023-08-24T01:10:59;21.50;89.60
44775;DHT22;31340;51.402;0.016;2023-08-24T01:13:53;21.50;89.80
44775;DHT22;31340;51.402;0.016;2023-08-24T01:16:29;21.50;90.00
44775;DHT22;31340;51.402;0.016;2023-08-24T01:19:00;21.40;90.00
44775;DHT22;31340;51.402;0.016;2023-08-24T01:21:30;21.40;90.10
44775;DHT22;31340;51.402;0.016;2023-08-24T01:26:32;21.30;90.30
44775;DHT22;31340;51.402;0.016;2023-08-24T01:29:01;21.30;90.40
44775;DHT22;31340;51.402;0.016;2023-08-24T01:31:30;21.30;90.60
44775;DHT22;31340;51.402;0.016;2023-08-24T01:33:57;21.30;90.60
44775;DHT22;31340;51.402;0.016;2023-08-24T01:36:25;21.20;90.60
44775;DHT22;31340;51.402;0.016;2023-08-24T01:38:59;21.10;90.70
44775;DHT22;31340;51.402;0.016;2023-08-24T01:41:36;21.10;90.90
44775;DHT22;31340;51.402;0.016;2023-08-24T01:44:13;21.10;91.00
44775;DHT22;31340;51.402;0.016;2023-08-24T01:46:43;21.00;91.10
44775;DHT22;31340;51.402;0.016;2023-08-24T01:49:13;21.00;91.30
44775;DHT22;31340;51.402;0.016;2023-08-24T01:51:43;20.90;91.30
44775;DHT22;31340;51.402;0.016;2023-08-24T01:54:11;20.90;91.40
44775;DHT22;31340;51.402;0.016;2023-08-24T01:56:38;20.80;91.40
44775;DHT22;31340;51.402;0.016;2023-08-24T01:59:06;20.70;91.50
44775;DHT22;31340;51.402;0.016;2023-08-24T02:01:34;20.70;91.60
44775;DHT22;31340;51.402;0.016;2023-08-24T02:04:01;20.70;91.70
44775;DHT22;31340;51.402;0.016;2023-08-24T02:06:29;20.60;91.80
44775;DHT22;31340;51.402;0.016;2023-08-24T02:08:56;20.60;91.80
44775;DHT22;31340;51.402;0.016;2023-08-24T02:11:24;20.60;92.00
44775;DHT22;31340;51.402;0.016;2023-08-24T02:13:52;20.60;92.10
44775;DHT22;31340;51.402;0.016;2023-08-24T02:16:19;20.50;92.20
44775;DHT22;31340;51.402;0.016;2023-08-24T02:18:47;20.40;92.20
44775;DHT22;31340;51.402;0.016;2023-08-24T02:21:15;20.40;92.20
44775;DHT22;31340;51.402;0.016;2023-08-24T02:23:43;20.40;92.30
44775;DHT22;31340;51.402;0.016;2023-08-24T02:26:10;20.40;92.30
44775;DHT22;31340;51.402;0.016;2023-08-24T02:28:38;20.40;92.40
44775;DHT22;31340;51.402;0.016;2023-08-24T02:31:06;20.40;92.40
44775;DHT22;31340;51.402;0.016;2023-08-24T02:33:35;20.40;92.40
44775;DHT22;31340;51.402;0.016;2023-08-24T02:36:03;20.40;92.50
44775;DHT22;31340;51.402;0.016;2023-08-24T02:38:31;20.30;92.50
44775;DHT22;31340;51.402;0.016;2023-08-24T02:41:06;20.30;92.50
44775;DHT22;31340;51.402;0.016;2023-08-24T02:43:35;20.30;92.60
44775;DHT22;31340;51.402;0.016;2023-08-24T02:46:06;20.30;92.60
44775;DHT22;31340;51.402;0.016;2023-08-24T02:48:34;20.30;92.70
44775;DHT22;31340;51.402;0.016;2023-08-24T02:51:04;20.30;93.10
44775;DHT22;31340;51.402;0.016;2023-08-24T02:53:32;20.20;92.80
44775;DHT22;31340;51.402;0.016;2023-08-24T02:56:00;20.30;92.90
44775;DHT22;31340;51.402;0.016;2023-08-24T02:58:28;20.30;92.90
44775;DHT22;31340;51.402;0.016;2023-08-24T03:00:56;20.20;92.90
44775;DHT22;31340;51.402;0.016;2023-08-24T03:03:24;20.20;92.90
44775;DHT22;31340;51.402;0.016;2023-08-24T03:06:01;20.20;92.90
44775;DHT22;31340;51.402;0.016;2023-08-24T03:08:30;20.20;93.00
44775;DHT22;31340;51.402;0.016;2023-08-24T03:10:59;20.20;93.00
44775;DHT22;31340;51.402;0.016;2023-08-24T03:13:27;20.20;93.10
44775;DHT22;31340;51.402;0.016;2023-08-24T03:15:55;20.20;93.10
44775;DHT22;31340;51.402;0.016;2023-08-24T03:18:28;20.20;93.10
44775;DHT22;31340;51.402;0.016;2023-08-24T03:20:55;20.10;93.10
44775;DHT22;31340;51.402;0.016;2023-08-24T03:23:23;20.20;93.10
44775;DHT22;31340;51.402;0.016;2023-08-24T03:25:50;20.20;93.20
44775;DHT22;31340;51.402;0.016;2023-08-24T03:28:18;20.20;93.30
44775;DHT22;31340;51.402;0.016;2023-08-24T03:30:52;20.20;93.40
44775;DHT22;31340;51.402;0.016;2023-08-24T03:33:20;20.20;93.50
44775;DHT22;31340;51.402;0.016;2023-08-24T03:35:48;20.20;93.50
44775;DHT22;31340;51.402;0.016;2023-08-24T03:38:16;20.20;93.60
44775;DHT22;31340;51.402;0.016;2023-08-24T03:40:44;20.20;93.70
44775;DHT22;31340;51.402;0.016;2023-08-24T03:43:11;20.20;93.80
44775;DHT22;31340;51.402;0.016;2023-08-24T03:45:42;20.20;93.90
44775;DHT22;31340;51.402;0.016;2023-08-24T03:48:11;20.20;94.00
44775;DHT22;31340;51.402;0.016;2023-08-24T03:50:38;20.30;94.00
44775;DHT22;31340;51.402;0.016;2023-08-24T03:53:06;20.30;94.00
44775;DHT22;31340;51.402;0.016;2023-08-24T03:55:34;20.30;94.00
44775;DHT22;31340;51.402;0.016;2023-08-24T03:58:01;20.30;94.00
44775;DHT22;31340;51.402;0.016;2023-08-24T04:00:29;20.40;93.90
44775;DHT22;31340;51.402;0.016;2023-08-24T04:03:01;20.40;93.80
44775;DHT22;31340;51.402;0.016;2023-08-24T04:05:30;20.40;93.80
44775;DHT22;31340;51.402;0.016;2023-08-24T04:07:58;20.40;93.80
44775;DHT22;31340;51.402;0.016;2023-08-24T04:10:29;20.40;93.80
44775;DHT22;31340;51.402;0.016;2023-08-24T04:12:58;20.40;93.90
44775;DHT22;31340;51.402;0.016;2023-08-24T04:15:26;20.40;93.90
44775;DHT22;31340;51.402;0.016;2023-08-24T04:17:53;20.40;93.80
44775;DHT22;31340;51.402;0.016;2023-08-24T04:20:21;20.40;93.70
44775;DHT22;31340;51.402;0.016;2023-08-24T04:22:49;20.40;93.80
44775;DHT22;31340;51.402;0.016;2023-08-24T04:25:16;20.40;93.80
44775;DHT22;31340;51.402;0.016;2023-08-24T04:27:44;20.30;93.70
44775;DHT22;31340;51.402;0.016;2023-08-24T04:30:11;20.30;93.70
44775;DHT22;31340;51.402;0.016;2023-08-24T04:32:40;20.30;93.70
44775;DHT22;31340;51.402;0.016;2023-08-24T04:35:08;20.30;93.80
44775;DHT22;31340;51.402;0.016;2023-08-24T04:37:36;20.30;93.80
44775;DHT22;31340;51.402;0.016;2023-08-24T04:40:05;20.30;93.80
44775;DHT22;31340;51.402;0.016;2023-08-24T04:42:34;20.30;93.80
44775;DHT22;31340;51.402;0.016;2023-08-24T04:45:02;20.30;93.80
44775;DHT22;31340;51.402;0.016;2023-08-24T04:47:30;20.20;93.90
44775;DHT22;31340;51.402;0.016;2023-08-24T04:49:58;20.20;94.00
44775;DHT22;31340;51.402;0.016;2023-08-24T04:52:25;20.20;94.10
44775;DHT22;31340;51.402;0.016;2023-08-24T04:54:53;20.20;94.10
44775;DHT22;31340;51.402;0.016;2023-08-24T04:57:20;20.20;94.20
44775;DHT22;31340;51.402;0.016;2023-08-24T04:59:51;20.20;94.30
44775;DHT22;31340;51.402;0.016;2023-08-24T05:02:19;20.20;94.30
44775;DHT22;31340;51.402;0.016;2023-08-24T05:04:46;20.20;94.40
44775;DHT22;31340;51.402;0.016;2023-08-24T05:07:16;20.30;94.40
44775;DHT22;31340;51.402;0.016;2023-08-24T05:09:44;20.30;94.40
44775;DHT22;31340;51.402;0.016;2023-08-24T05:12:12;20.30;94.40
44775;DHT22;31340;51.402;0.016;2023-08-24T05:14:39;20.30;94.50
44775;DHT22;31340;51.402;0.016;2023-08-24T05:17:07;20.30;94.60
44775;DHT22;31340;51.402;0.016;2023-08-24T05:19:34;20.40;94.70
44775;DHT22;31340;51.402;0.016;2023-08-24T05:22:02;20.40;94.80
44775;DHT22;31340;51.402;0.016;2023-08-24T05:24:30;20.40;94.90
44775;DHT22;31340;51.402;0.016;2023-08-24T05:26:57;20.40;95.10
44775;DHT22;31340;51.402;0.016;2023-08-24T05:29:24;20.50;95.30
44775;DHT22;31340;51.402;0.016;2023-08-24T05:31:52;20.50;95.50
44775;DHT22;31340;51.402;0.016;2023-08-24T05:34:20;20.50;95.90
44775;DHT22;31340;51.402;0.016;2023-08-24T05:36:47;20.50;96.00
44775;DHT22;31340;51.402;0.016;2023-08-24T05:39:15;20.40;96.00
44775;DHT22;31340;51.402;0.016;2023-08-24T05:41:43;20.50;96.30
44775;DHT22;31340;51.402;0.016;2023-08-24T05:44:10;20.50;96.50
44775;DHT22;31340;51.402;0.016;2023-08-24T05:46:38;20.50;96.90
44775;DHT22;31340;51.402;0.016;2023-08-24T05:49:07;20.50;97.00
44775;DHT22;31340;51.402;0.016;2023-08-24T05:51:35;20.40;97.20
44775;DHT22;31340;51.402;0.016;2023-08-24T05:54:03;20.40;97.50
44775;DHT22;31340;51.402;0.016;2023-08-24T05:56:31;20.40;97.60
44775;DHT22;31340;51.402;0.016;2023-08-24T05:58:58;20.40;97.80
44775;DHT22;31340;51.402;0.016;2023-08-24T06:01:27;20.30;97.90
44775;DHT22;31340;51.402;0.016;2023-08-24T06:03:55;20.30;98.10
44775;DHT22;31340;51.402;0.016;2023-08-24T06:06:22;20.30;98.20
44775;DHT22;31340;51.402;0.016;2023-08-24T06:08:50;20.30;98.30
44775;DHT22;31340;51.402;0.016;2023-08-24T06:11:17;20.30;98.50
44775;DHT22;31340;51.402;0.016;2023-08-24T06:13:45;20.30;98.60
44775;DHT22;31340;51.402;0.016;2023-08-24T06:16:13;20.30;98.60
44775;DHT22;31340;51.402;0.016;2023-08-24T06:18:41;20.30;98.60
44775;DHT22;31340;51.402;0.016;2023-08-24T06:21:08;20.20;98.60
44775;DHT22;31340;51.402;0.016;2023-08-24T06:23:36;20.20;99.10
44775;DHT22;31340;51.402;0.016;2023-08-24T06:26:03;20.20;98.90
44775;DHT22;31340;51.402;0.016;2023-08-24T06:28:32;20.20;98.90
44775;DHT22;31340;51.402;0.016;2023-08-24T06:31:00;20.20;99.00
44775;DHT22;31340;51.402;0.016;2023-08-24T06:33:28;20.10;99.00
44775;DHT22;31340;51.402;0.016;2023-08-24T06:35:59;20.10;99.10
44775;DHT22;31340;51.402;0.016;2023-08-24T06:38:26;20.10;99.20
44775;DHT22;31340;51.402;0.016;2023-08-24T06:40:54;20.10;99.30
44775;DHT22;31340;51.402;0.016;2023-08-24T06:43:21;20.10;99.40
44775;DHT22;31340;51.402;0.016;2023-08-24T06:45:49;20.00;99.50
44775;DHT22;31340;51.402;0.016;2023-08-24T06:48:17;20.00;99.60
44775;DHT22;31340;51.402;0.016;2023-08-24T06:50:45;20.00;99.80
44775;DHT22;31340;51.402;0.016;2023-08-24T06:53:13;20.00;99.90
44775;DHT22;31340;51.402;0.016;2023-08-24T06:55:42;19.90;99.90
44775;DHT22;31340;51.402;0.016;2023-08-24T06:58:09;20.00;99.90
44775;DHT22;31340;51.402;0.016;2023-08-24T07:00:37;20.00;99.90
44775;DHT22;31340;51.402;0.016;2023-08-24T07:03:05;20.00;99.90
44775;DHT22;31340;51.402;0.016;2023-08-24T07:05:32;20.00;99.90
44775;DHT22;31340;51.402;0.016;2023-08-24T07:08:03;20.00;99.90
44775;DHT22;31340;51.402;0.016;2023-08-24T07:10:31;20.00;99.90
44775;DHT22;31340;51.402;0.016;2023-08-24T07:13:00;20.00;99.90
44775;DHT22;31340;51.402;0.016;2023-08-24T07:15:27;20.00;99.90
44775;DHT22;31340;51.402;0.016;2023-08-24T07:17:55;20.00;99.90
44775;DHT22;31340;51.402;0.016;2023-08-24T07:20:23;20.10;99.90
44775;DHT22;31340;51.402;0.016;2023-08-24T07:22:51;20.10;99.90
44775;DHT22;31340;51.402;0.016;2023-08-24T07:25:18;20.10;99.90
44775;DHT22;31340;51.402;0.016;2023-08-24T07:27:46;20.10;99.90
44775;DHT22;31340;51.402;0.016;2023-08-24T07:30:14;20.10;99.90
44775;DHT22;31340;51.402;0.016;2023-08-24T07:33:00;20.10;99.90
44775;DHT22;31340;51.402;0.016;2023-08-24T07:35:29;20.20;99.90
44775;DHT22;31340;51.402;0.016;2023-08-24T07:37:56;20.20;99.90
44775;DHT22;31340;51.402;0.016;2023-08-24T07:40:24;20.20;99.90
44775;DHT22;31340;51.402;0.016;2023-08-24T07:42:52;20.30;99.90
44775;DHT22;31340;51.402;0.016;2023-08-24T07:45:22;20.30;99.90
44775;DHT22;31340;51.402;0.016;2023-08-24T07:47:50;20.40;99.90
44775;DHT22;31340;51.402;0.016;2023-08-24T07:50:19;20.40;99.90
44775;DHT22;31340;51.402;0.016;2023-08-24T07:52:47;20.50;99.90
44775;DHT22;31340;51.402;0.016;2023-08-24T07:55:14;20.50;99.90
44775;DHT22;31340;51.402;0.016;2023-08-24T07:57:43;20.50;99.90
44775;DHT22;31340;51.402;0.016;2023-08-24T08:00:11;20.50;99.90
44775;DHT22;31340;51.402;0.016;2023-08-24T08:02:41;20.50;99.90
44775;DHT22;31340;51.402;0.016;2023-08-24T08:05:08;20.60;99.90
44775;DHT22;31340;51.402;0.016;2023-08-24T08:07:38;20.60;99.90
44775;DHT22;31340;51.402;0.016;2023-08-24T08:10:06;20.60;99.90
44775;DHT22;31340;51.402;0.016;2023-08-24T08:12:36;20.70;99.90
44775;DHT22;31340;51.402;0.016;2023-08-24T08:15:06;20.80;99.90
44775;DHT22;31340;51.402;0.016;2023-08-24T08:17:35;20.80;99.90
44775;DHT22;31340;51.402;0.016;2023-08-24T08:20:03;20.80;99.90
44775;DHT22;31340;51.402;0.016;2023-08-24T08:22:32;20.90;99.90
44775;DHT22;31340;51.402;0.016;2023-08-24T08:25:06;20.90;99.90
44775;DHT22;31340;51.402;0.016;2023-08-24T08:27:34;21.00;99.90
44775;DHT22;31340;51.402;0.016;2023-08-24T08:30:02;21.10;99.90
44775;DHT22;31340;51.402;0.016;2023-08-24T08:32:32;21.10;99.90
44775;DHT22;31340;51.402;0.016;2023-08-24T08:35:00;21.20;99.90
44775;DHT22;31340;51.402;0.016;2023-08-24T08:37:30;21.20;99.90
44775;DHT22;31340;51.402;0.016;2023-08-24T08:39:59;21.30;99.90
44775;DHT22;31340;51.402;0.016;2023-08-24T08:42:27;21.30;99.90
44775;DHT22;31340;51.402;0.016;2023-08-24T08:44:56;21.30;99.90
44775;DHT22;31340;51.402;0.016;2023-08-24T08:47:24;21.40;99.90
44775;DHT22;31340;51.402;0.016;2023-08-24T08:49:55;21.50;99.90
44775;DHT22;31340;51.402;0.016;2023-08-24T08:52:22;21.50;99.90
44775;DHT22;31340;51.402;0.016;2023-08-24T08:54:52;21.60;99.90
44775;DHT22;31340;51.402;0.016;2023-08-24T08:57:21;21.70;99.90
44775;DHT22;31340;51.402;0.016;2023-08-24T08:59:53;21.80;99.90
44775;DHT22;31340;51.402;0.016;2023-08-24T09:02:23;21.90;99.90
44775;DHT22;31340;51.402;0.016;2023-08-24T09:04:51;22.00;99.90
44775;DHT22;31340;51.402;0.016;2023-08-24T09:07:19;22.10;99.90
44775;DHT22;31340;51.402;0.016;2023-08-24T09:09:48;22.10;99.90
44775;DHT22;31340;51.402;0.016;2023-08-24T09:12:16;22.20;99.90
44775;DHT22;31340;51.402;0.016;2023-08-24T09:14:44;22.30;99.90
44775;DHT22;31340;51.402;0.016;2023-08-24T09:17:19;22.40;99.90
44775;DHT22;31340;51.402;0.016;2023-08-24T09:19:50;22.50;99.90
44775;DHT22;31340;51.402;0.016;2023-08-24T09:22:21;22.50;99.90
44775;DHT22;31340;51.402;0.016;2023-08-24T09:24:48;22.60;99.90
44775;DHT22;31340;51.402;0.016;2023-08-24T09:27:21;22.60;99.90
44775;DHT22;31340;51.402;0.016;2023-08-24T09:29:50;22.60;99.90
44775;DHT22;31340;51.402;0.016;2023-08-24T09:32:31;22.60;99.90
44775;DHT22;31340;51.402;0.016;2023-08-24T09:35:20;22.60;99.90
44775;DHT22;31340;51.402;0.016;2023-08-24T09:37:50;22.70;99.90
44775;DHT22;31340;51.402;0.016;2023-08-24T09:40:24;22.70;99.90
44775;DHT22;31340;51.402;0.016;2023-08-24T09:42:52;22.70;99.90
44775;DHT22;31340;51.402;0.016;2023-08-24T09:45:20;22.70;99.90
44775;DHT22;31340;51.402;0.016;2023-08-24T09:47:51;22.80;99.90
44775;DHT22;31340;51.402;0.016;2023-08-24T09:50:19;22.80;99.90
44775;DHT22;31340;51.402;0.016;2023-08-24T09:52:49;22.90;99.90
44775;DHT22;31340;51.402;0.016;2023-08-24T09:55:20;22.90;99.90
44775;DHT22;31340;51.402;0.016;2023-08-24T09:57:53;23.00;99.90
44775;DHT22;31340;51.402;0.016;2023-08-24T10:00:22;23.00;99.90
44775;DHT22;31340;51.402;0.016;2023-08-24T10:02:53;23.10;99.90
44775;DHT22;31340;51.402;0.016;2023-08-24T10:05:23;23.20;99.90
44775;DHT22;31340;51.402;0.016;2023-08-24T10:08:09;23.30;99.90
44775;DHT22;31340;51.402;0.016;2023-08-24T10:10:38;23.50;99.90
44775;DHT22;31340;51.402;0.016;2023-08-24T10:13:14;23.60;99.90
44775;DHT22;31340;51.402;0.016;2023-08-24T10:15:46;23.70;99.90
44775;DHT22;31340;51.402;0.016;2023-08-24T10:18:18;23.80;99.80
44775;DHT22;31340;51.402;0.016;2023-08-24T10:20:47;23.90;99.40
44775;DHT22;31340;51.402;0.016;2023-08-24T10:23:15;24.10;99.10
44775;DHT22;31340;51.402;0.016;2023-08-24T10:25:44;24.20;99.00
44775;DHT22;31340;51.402;0.016;2023-08-24T10:28:14;24.20;98.80
44775;DHT22;31340;51.402;0.016;2023-08-24T10:30:44;24.30;98.70
44775;DHT22;31340;51.402;0.016;2023-08-24T10:33:14;24.40;98.70
44775;DHT22;31340;51.402;0.016;2023-08-24T10:35:43;24.60;98.60
44775;DHT22;31340;51.402;0.016;2023-08-24T10:40:53;24.80;98.30
44775;DHT22;31340;51.402;0.016;2023-08-24T10:43:24;25.00;98.20
44775;DHT22;31340;51.402;0.016;2023-08-24T10:46:00;25.10;98.10
44775;DHT22;31340;51.402;0.016;2023-08-24T10:51:18;25.50;97.90
44775;DHT22;31340;51.402;0.016;2023-08-24T10:53:51;25.60;97.90
44775;DHT22;31340;51.402;0.016;2023-08-24T10:56:19;25.90;97.50
44775;DHT22;31340;51.402;0.016;2023-08-24T10:59:14;26.10;97.30
44775;DHT22;31340;51.402;0.016;2023-08-24T11:04:18;26.60;96.60
44775;DHT22;31340;51.402;0.016;2023-08-24T11:06:53;26.90;95.90
44775;DHT22;31340;51.402;0.016;2023-08-24T11:09:23;27.10;95.00
44775;DHT22;31340;51.402;0.016;2023-08-24T11:12:02;27.20;94.60
44775;DHT22;31340;51.402;0.016;2023-08-24T11:14:31;27.40;94.20
44775;DHT22;31340;51.402;0.016;2023-08-24T11:17:01;27.50;93.80
44775;DHT22;31340;51.402;0.016;2023-08-24T11:19:52;27.60;93.50
44775;DHT22;31340;51.402;0.016;2023-08-24T11:22:20;27.70;93.10
44775;DHT22;31340;51.402;0.016;2023-08-24T11:24:51;27.80;92.90
44775;DHT22;31340;51.402;0.016;2023-08-24T11:27:21;27.90;92.70
44775;DHT22;31340;51.402;0.016;2023-08-24T11:29:58;28.00;92.40
44775;DHT22;31340;51.402;0.016;2023-08-24T11:32:27;28.10;91.90
44775;DHT22;31340;51.402;0.016;2023-08-24T11:34:56;28.20;91.60
44775;DHT22;31340;51.402;0.016;2023-08-24T11:37:25;28.20;91.10
44775;DHT22;31340;51.402;0.016;2023-08-24T11:39:53;28.30;90.60
44775;DHT22;31340;51.402;0.016;2023-08-24T11:42:20;28.40;90.30
44775;DHT22;31340;51.402;0.016;2023-08-24T11:44:48;28.40;90.20
44775;DHT22;31340;51.402;0.016;2023-08-24T11:47:16;28.50;90.10
44775;DHT22;31340;51.402;0.016;2023-08-24T11:49:46;28.60;89.50
44775;DHT22;31340;51.402;0.016;2023-08-24T11:52:14;28.70;88.80
44775;DHT22;31340;51.402;0.016;2023-08-24T11:54:43;28.80;87.80
44775;DHT22;31340;51.402;0.016;2023-08-24T11:57:12;28.90;87.00
44775;DHT22;31340;51.402;0.016;2023-08-24T11:59:40;28.90;86.40
44775;DHT22;31340;51.402;0.016;2023-08-24T12:02:09;29.00;86.10
44775;DHT22;31340;51.402;0.016;2023-08-24T12:04:42;29.00;85.80
44775;DHT22;31340;51.402;0.016;2023-08-24T12:07:12;29.00;85.50
44775;DHT22;31340;51.402;0.016;2023-08-24T12:09:40;29.00;85.20
44775;DHT22;31340;51.402;0.016;2023-08-24T12:12:17;29.00;83.80
44775;DHT22;31340;51.402;0.016;2023-08-24T12:14:47;29.00;82.30
44775;DHT22;31340;51.402;0.016;2023-08-24T12:17:16;28.90;81.20
44775;DHT22;31340;51.402;0.016;2023-08-24T12:19:45;28.90;80.30
44775;DHT22;31340;51.402;0.016;2023-08-24T12:22:22;28.80;80.50
44775;DHT22;31340;51.402;0.016;2023-08-24T12:24:50;28.80;79.60
44775;DHT22;31340;51.402;0.016;2023-08-24T12:27:19;28.70;79.50
44775;DHT22;31340;51.402;0.016;2023-08-24T12:29:47;28.60;79.00
44775;DHT22;31340;51.402;0.016;2023-08-24T12:32:15;28.60;79.30
44775;DHT22;31340;51.402;0.016;2023-08-24T12:34:43;28.60;79.00
44775;DHT22;31340;51.402;0.016;2023-08-24T12:37:11;28.60;78.70
44775;DHT22;31340;51.402;0.016;2023-08-24T12:39:39;28.70;78.50
44775;DHT22;31340;51.402;0.016;2023-08-24T12:42:07;28.70;78.60
44775;DHT22;31340;51.402;0.016;2023-08-24T12:44:34;28.80;77.00
44775;DHT22;31340;51.402;0.016;2023-08-24T12:47:04;28.80;77.70
44775;DHT22;31340;51.402;0.016;2023-08-24T12:49:31;28.90;77.70
44775;DHT22;31340;51.402;0.016;2023-08-24T12:51:59;29.00;76.70
44775;DHT22;31340;51.402;0.016;2023-08-24T12:54:26;29.00;76.00
44775;DHT22;31340;51.402;0.016;2023-08-24T12:56:54;29.00;75.90
44775;DHT22;31340;51.402;0.016;2023-08-24T12:59:21;29.10;75.70
44775;DHT22;31340;51.402;0.016;2023-08-24T13:01:50;29.10;75.90
44775;DHT22;31340;51.402;0.016;2023-08-24T13:04:18;29.10;75.20
44775;DHT22;31340;51.402;0.016;2023-08-24T13:06:46;29.00;74.60
44775;DHT22;31340;51.402;0.016;2023-08-24T13:09:14;28.90;74.70
44775;DHT22;31340;51.402;0.016;2023-08-24T13:11:41;28.80;74.60
44775;DHT22;31340;51.402;0.016;2023-08-24T13:14:10;28.70;74.50
44775;DHT22;31340;51.402;0.016;2023-08-24T13:16:38;28.60;74.80
44775;DHT22;31340;51.402;0.016;2023-08-24T13:19:06;28.50;75.50
44775;DHT22;31340;51.402;0.016;2023-08-24T13:21:34;28.40;76.00
44775;DHT22;31340;51.402;0.016;2023-08-24T13:24:02;28.30;76.20
44775;DHT22;31340;51.402;0.016;2023-08-24T13:26:29;28.20;76.60
44775;DHT22;31340;51.402;0.016;2023-08-24T13:28:57;28.10;76.80
44775;DHT22;31340;51.402;0.016;2023-08-24T13:31:24;28.00;77.40
44775;DHT22;31340;51.402;0.016;2023-08-24T13:33:52;27.90;77.40
44775;DHT22;31340;51.402;0.016;2023-08-24T13:36:19;27.80;78.30
44775;DHT22;31340;51.402;0.016;2023-08-24T13:38:47;27.60;79.90
44775;DHT22;31340;51.402;0.016;2023-08-24T13:41:17;27.50;80.10
44775;DHT22;31340;51.402;0.016;2023-08-24T13:43:44;27.40;81.60
44775;DHT22;31340;51.402;0.016;2023-08-24T13:46:12;27.30;82.50
44775;DHT22;31340;51.402;0.016;2023-08-24T13:48:40;27.20;83.10
44775;DHT22;31340;51.402;0.016;2023-08-24T13:51:07;27.10;84.10
44775;DHT22;31340;51.402;0.016;2023-08-24T13:53:36;27.00;84.30
44775;DHT22;31340;51.402;0.016;2023-08-24T13:56:04;26.90;84.60
44775;DHT22;31340;51.402;0.016;2023-08-24T13:58:32;26.70;85.50
44775;DHT22;31340;51.402;0.016;2023-08-24T14:01:00;26.60;86.00
44775;DHT22;31340;51.402;0.016;2023-08-24T14:03:30;26.50;86.10
44775;DHT22;31340;51.402;0.016;2023-08-24T14:05:58;26.40;86.00
44775;DHT22;31340;51.402;0.016;2023-08-24T14:08:26;26.30;86.30
44775;DHT22;31340;51.402;0.016;2023-08-24T14:10:54;26.20;86.80
44775;DHT22;31340;51.402;0.016;2023-08-24T14:13:22;26.10;87.20
44775;DHT22;31340;51.402;0.016;2023-08-24T14:15:51;26.00;88.10
44775;DHT22;31340;51.402;0.016;2023-08-24T14:18:19;25.90;89.00
44775;DHT22;31340;51.402;0.016;2023-08-24T14:20:48;25.80;89.90
44775;DHT22;31340;51.402;0.016;2023-08-24T14:23:15;25.70;90.30
44775;DHT22;31340;51.402;0.016;2023-08-24T14:25:43;25.60;90.70
44775;DHT22;31340;51.402;0.016;2023-08-24T14:28:13;25.60;91.20
44775;DHT22;31340;51.402;0.016;2023-08-24T14:30:41;25.50;91.30
44775;DHT22;31340;51.402;0.016;2023-08-24T14:33:08;25.40;91.50
44775;DHT22;31340;51.402;0.016;2023-08-24T14:35:36;25.30;91.90
44775;DHT22;31340;51.402;0.016;2023-08-24T14:38:03;25.20;92.50
44775;DHT22;31340;51.402;0.016;2023-08-24T14:40:31;25.10;92.90
44775;DHT22;31340;51.402;0.016;2023-08-24T14:42:58;25.10;93.30
44775;DHT22;31340;51.402;0.016;2023-08-24T14:45:26;25.00;93.50
44775;DHT22;31340;51.402;0.016;2023-08-24T14:47:53;24.90;93.70
44775;DHT22;31340;51.402;0.016;2023-08-24T14:50:22;24.80;94.00
44775;DHT22;31340;51.402;0.016;2023-08-24T14:52:50;24.80;94.10
44775;DHT22;31340;51.402;0.016;2023-08-24T14:55:17;24.80;94.10
44775;DHT22;31340;51.402;0.016;2023-08-24T14:57:46;24.70;94.50
44775;DHT22;31340;51.402;0.016;2023-08-24T15:00:14;24.60;94.80
44775;DHT22;31340;51.402;0.016;2023-08-24T15:02:41;24.60;95.20
44775;DHT22;31340;51.402;0.016;2023-08-24T15:05:11;24.50;95.50
44775;DHT22;31340;51.402;0.016;2023-08-24T15:07:39;24.50;95.80
44775;DHT22;31340;51.402;0.016;2023-08-24T15:10:06;24.50;95.90
44775;DHT22;31340;51.402;0.016;2023-08-24T15:12:34;24.40;96.00
44775;DHT22;31340;51.402;0.016;2023-08-24T15:15:02;24.40;96.10
44775;DHT22;31340;51.402;0.016;2023-08-24T15:17:32;24.40;96.30
44775;DHT22;31340;51.402;0.016;2023-08-24T15:20:00;24.40;96.50
44775;DHT22;31340;51.402;0.016;2023-08-24T15:22:27;24.30;96.50
44775;DHT22;31340;51.402;0.016;2023-08-24T15:24:57;24.30;96.60
44775;DHT22;31340;51.402;0.016;2023-08-24T15:27:29;24.30;96.70
44775;DHT22;31340;51.402;0.016;2023-08-24T15:29:59;24.20;96.80
44775;DHT22;31340;51.402;0.016;2023-08-24T15:32:28;24.20;96.90
44775;DHT22;31340;51.402;0.016;2023-08-24T15:34:58;24.20;97.00
44775;DHT22;31340;51.402;0.016;2023-08-24T15:37:29;24.20;97.50
44775;DHT22;31340;51.402;0.016;2023-08-24T15:39:56;24.20;97.10
44775;DHT22;31340;51.402;0.016;2023-08-24T15:42:25;24.20;97.20
44775;DHT22;31340;51.402;0.016;2023-08-24T15:44:52;24.10;97.00
44775;DHT22;31340;51.402;0.016;2023-08-24T15:47:20;24.10;97.00
44775;DHT22;31340;51.402;0.016;2023-08-24T15:49:48;24.10;97.00
44775;DHT22;31340;51.402;0.016;2023-08-24T15:52:15;24.10;96.90
44775;DHT22;31340;51.402;0.016;2023-08-24T15:54:52;24.20;97.00
44775;DHT22;31340;51.402;0.016;2023-08-24T15:57:20;24.10;96.90
44775;DHT22;31340;51.402;0.016;2023-08-24T15:59:47;24.10;96.60
44775;DHT22;31340;51.402;0.016;2023-08-24T16:02:15;24.10;96.60
44775;DHT22;31340;51.402;0.016;2023-08-24T16:04:58;24.10;96.60
44775;DHT22;31340;51.402;0.016;2023-08-24T16:07:25;24.10;96.40
44775;DHT22;31340;51.402;0.016;2023-08-24T16:09:53;24.10;96.20
44775;DHT22;31340;51.402;0.016;2023-08-24T16:12:21;24.10;96.20
44775;DHT22;31340;51.402;0.016;2023-08-24T16:14:48;24.10;96.10
44775;DHT22;31340;51.402;0.016;2023-08-24T16:17:16;24.10;96.20